createdAt,value
2018-12-31T00:01:13.238Z,5.20
2018-12-31T00:03:41.402Z,5.30
2018-12-31T00:06:11.192Z,5.20
2018-12-31T00:08:39.300Z,5.10
2018-12-31T00:11:07.844Z,5.10
2018-12-31T00:13:36.331Z,5.00
2018-12-31T00:16:22.282Z,5.00
2018-12-31T00:18:50.378Z,4.90
2018-12-31T00:21:18.529Z,4.80
2018-12-31T00:23:58.292Z,4.80
2018-12-31T00:26:30.043Z,4.80
2018-12-31T00:29:14.034Z,4.80
2018-12-31T00:31:43.009Z,4.70
2018-12-31T00:34:29.422Z,4.70
2018-12-31T00:37:07.957Z,4.70
2018-12-31T00:39:36.046Z,4.70
2018-12-31T00:42:04.180Z,4.70
2018-12-31T00:44:32.330Z,4.70
2018-12-31T00:47:00.458Z,4.70
2018-12-31T00:49:28.541Z,4.70
2018-12-31T00:51:56.702Z,4.70
2018-12-31T00:54:24.797Z,4.70
2018-12-31T00:56:52.945Z,4.70
2018-12-31T00:59:21.104Z,4.60
2018-12-31T01:01:49.236Z,4.50
2018-12-31T01:04:17.353Z,4.50
2018-12-31T01:06:45.509Z,4.40
2018-12-31T01:09:13.684Z,4.40
2018-12-31T01:11:41.844Z,4.30
2018-12-31T01:14:10.066Z,4.30
2018-12-31T01:16:38.200Z,4.10
2018-12-31T01:19:06.295Z,4.10
2018-12-31T01:21:34.446Z,4.10
2018-12-31T01:24:02.555Z,4.00
2018-12-31T01:26:30.685Z,3.90
2018-12-31T01:28:58.781Z,4.00
2018-12-31T01:31:26.924Z,4.00
2018-12-31T01:33:55.169Z,4.10
2018-12-31T01:36:28.029Z,4.00
2018-12-31T01:38:56.123Z,4.00
2018-12-31T01:41:24.285Z,3.90
2018-12-31T01:43:52.434Z,3.90
2018-12-31T01:46:21.082Z,4.00
2018-12-31T01:48:49.208Z,3.90
2018-12-31T01:51:17.329Z,3.90
2018-12-31T01:53:45.469Z,4.00
2018-12-31T01:56:13.616Z,4.00
2018-12-31T01:58:41.757Z,3.90
2018-12-31T02:01:09.844Z,4.00
2018-12-31T02:03:37.973Z,4.00
2018-12-31T02:06:06.091Z,4.00
2018-12-31T02:08:34.224Z,3.90
2018-12-31T02:11:02.664Z,4.00
2018-12-31T02:13:32.049Z,3.90
2018-12-31T02:16:00.263Z,3.90
2018-12-31T02:18:28.390Z,3.90
2018-12-31T02:21:03.777Z,4.00
2018-12-31T02:23:32.130Z,4.00
2018-12-31T02:26:04.780Z,4.00
2018-12-31T02:28:32.933Z,3.90
2018-12-31T02:31:01.753Z,3.90
2018-12-31T02:33:29.909Z,3.90
2018-12-31T02:35:58.000Z,3.90
2018-12-31T02:38:26.244Z,4.00
2018-12-31T02:40:54.349Z,3.90
2018-12-31T02:43:22.849Z,3.90
2018-12-31T02:45:50.981Z,3.90
2018-12-31T02:48:19.127Z,3.90
2018-12-31T02:50:47.213Z,3.80
2018-12-31T02:53:15.371Z,3.70
2018-12-31T02:55:43.835Z,3.70
2018-12-31T02:58:12.081Z,3.80
2018-12-31T03:00:40.152Z,3.80
2018-12-31T03:03:08.316Z,3.90
2018-12-31T03:05:36.934Z,3.90
2018-12-31T03:08:05.099Z,3.90
2018-12-31T03:10:33.180Z,3.80
2018-12-31T03:13:01.309Z,3.80
2018-12-31T03:15:29.497Z,3.80
2018-12-31T03:17:57.622Z,3.80
2018-12-31T03:20:25.709Z,3.80
2018-12-31T03:22:53.859Z,3.90
2018-12-31T03:25:21.937Z,3.90
2018-12-31T03:27:50.064Z,4.00
2018-12-31T03:30:18.270Z,3.90
2018-12-31T03:32:46.439Z,3.90
2018-12-31T03:35:14.540Z,3.80
2018-12-31T03:37:42.688Z,3.80
2018-12-31T03:40:11.365Z,3.80
2018-12-31T03:42:39.699Z,3.70
2018-12-31T03:45:08.115Z,3.70
2018-12-31T03:47:36.272Z,3.70
2018-12-31T03:50:05.206Z,3.60
2018-12-31T03:52:33.441Z,3.50
2018-12-31T03:55:01.896Z,3.50
2018-12-31T03:57:30.053Z,3.40
2018-12-31T03:59:58.142Z,3.40
2018-12-31T04:02:26.394Z,3.40
2018-12-31T04:04:54.570Z,3.40
2018-12-31T04:07:23.137Z,3.40
2018-12-31T04:09:51.251Z,3.40
2018-12-31T04:12:19.370Z,3.50
2018-12-31T04:14:47.467Z,3.40
2018-12-31T04:17:15.623Z,3.30
2018-12-31T04:19:44.149Z,3.40
2018-12-31T04:22:12.249Z,3.30
2018-12-31T04:24:59.770Z,3.30
2018-12-31T04:27:32.130Z,3.30
2018-12-31T04:30:00.263Z,3.30
2018-12-31T04:32:28.892Z,3.40
2018-12-31T04:34:57.029Z,3.40
2018-12-31T04:37:25.152Z,3.30
2018-12-31T04:39:53.229Z,3.30
2018-12-31T04:42:21.448Z,3.20
2018-12-31T04:44:49.574Z,3.20
2018-12-31T04:47:17.752Z,3.30
2018-12-31T04:49:45.911Z,3.30
2018-12-31T04:52:14.019Z,3.30
2018-12-31T04:54:42.213Z,3.20
2018-12-31T04:57:10.315Z,3.20
2018-12-31T04:59:38.463Z,3.10
2018-12-31T05:02:06.560Z,3.10
2018-12-31T05:04:34.690Z,3.10
2018-12-31T05:07:02.788Z,3.00
2018-12-31T05:09:30.954Z,3.00
2018-12-31T05:11:59.045Z,2.90
2018-12-31T05:14:27.217Z,2.90
2018-12-31T05:16:55.305Z,2.90
2018-12-31T05:19:23.478Z,2.90
2018-12-31T05:22:12.500Z,2.90
2018-12-31T05:24:40.644Z,2.90
2018-12-31T05:27:09.194Z,2.80
2018-12-31T05:29:37.806Z,2.80
2018-12-31T05:32:05.889Z,2.80
2018-12-31T05:34:34.040Z,2.80
2018-12-31T05:37:02.185Z,2.70
2018-12-31T05:39:30.346Z,2.60
2018-12-31T05:41:58.450Z,2.60
2018-12-31T05:44:26.618Z,2.60
2018-12-31T05:46:54.756Z,2.60
2018-12-31T05:49:23.313Z,2.60
2018-12-31T05:51:51.985Z,2.50
2018-12-31T05:54:20.196Z,2.50
2018-12-31T05:56:48.300Z,2.50
2018-12-31T05:59:16.407Z,2.50
2018-12-31T06:01:44.877Z,2.50
2018-12-31T06:04:12.996Z,2.50
2018-12-31T06:06:41.161Z,2.50
2018-12-31T06:09:09.365Z,2.50
2018-12-31T06:11:37.502Z,2.60
2018-12-31T06:14:05.569Z,2.50
2018-12-31T06:16:33.686Z,2.60
2018-12-31T06:19:01.769Z,2.50
2018-12-31T06:21:29.897Z,2.50
2018-12-31T06:23:58.076Z,2.60
2018-12-31T06:26:26.209Z,2.80
2018-12-31T06:28:54.278Z,2.60
2018-12-31T06:31:22.456Z,2.50
2018-12-31T06:33:50.533Z,2.50
2018-12-31T06:36:18.667Z,2.40
2018-12-31T06:38:46.741Z,2.40
2018-12-31T06:41:14.857Z,2.40
2018-12-31T06:43:42.923Z,2.30
2018-12-31T06:46:11.094Z,2.30
2018-12-31T06:48:39.152Z,2.30
2018-12-31T06:51:07.281Z,2.30
2018-12-31T06:53:35.340Z,2.30
2018-12-31T06:56:03.459Z,2.30
2018-12-31T06:58:31.518Z,2.20
2018-12-31T07:00:59.641Z,2.10
2018-12-31T07:03:27.708Z,2.20
2018-12-31T07:05:55.844Z,2.20
2018-12-31T07:08:23.927Z,2.30
2018-12-31T07:10:51.995Z,2.40
2018-12-31T07:13:20.116Z,2.40
2018-12-31T07:15:48.744Z,2.50
2018-12-31T07:18:16.825Z,2.30
2018-12-31T07:20:44.950Z,2.20
2018-12-31T07:23:13.021Z,2.20
2018-12-31T07:25:41.104Z,2.20
2018-12-31T07:28:09.354Z,2.20
2018-12-31T07:30:37.417Z,2.20
2018-12-31T07:33:05.529Z,2.20
2018-12-31T07:35:33.611Z,2.20
2018-12-31T07:38:01.720Z,2.30
2018-12-31T07:40:30.177Z,2.30
2018-12-31T07:42:58.304Z,2.40
2018-12-31T07:45:26.425Z,2.40
2018-12-31T07:47:54.597Z,2.50
2018-12-31T07:50:22.673Z,2.50
2018-12-31T07:52:50.785Z,2.60
2018-12-31T07:55:18.850Z,2.70
2018-12-31T07:57:46.978Z,2.80
2018-12-31T08:00:15.045Z,2.90
2018-12-31T08:02:43.164Z,3.00
2018-12-31T08:05:11.336Z,3.10
2018-12-31T08:07:39.458Z,3.30
2018-12-31T08:10:07.573Z,3.30
2018-12-31T08:12:35.687Z,3.40
2018-12-31T08:15:04.221Z,3.50
2018-12-31T08:17:32.354Z,3.50
2018-12-31T08:20:00.472Z,3.60
2018-12-31T08:22:28.689Z,3.60
2018-12-31T08:24:56.784Z,3.70
2018-12-31T08:27:25.009Z,3.80
2018-12-31T08:29:53.086Z,3.80
2018-12-31T08:32:21.197Z,4.00
2018-12-31T08:34:49.268Z,4.00
2018-12-31T08:37:17.402Z,4.10
2018-12-31T08:39:45.465Z,4.30
2018-12-31T08:42:13.593Z,4.40
2018-12-31T08:44:41.661Z,4.60
2018-12-31T08:47:09.834Z,4.70
2018-12-31T08:49:37.905Z,4.70
2018-12-31T08:52:06.025Z,4.90
2018-12-31T08:54:34.084Z,5.00
2018-12-31T08:57:02.196Z,5.00
2018-12-31T08:59:30.268Z,5.10
2018-12-31T09:01:58.391Z,5.10
2018-12-31T09:04:26.905Z,5.20
2018-12-31T09:06:55.028Z,5.30
2018-12-31T09:09:23.345Z,5.30
2018-12-31T09:11:51.468Z,5.30
2018-12-31T09:14:19.597Z,5.40
2018-12-31T09:16:47.713Z,5.40
2018-12-31T09:19:15.793Z,5.40
2018-12-31T09:21:44.365Z,5.50
2018-12-31T09:24:12.450Z,5.60
2018-12-31T09:26:40.576Z,5.70
2018-12-31T09:29:08.640Z,5.70
2018-12-31T09:31:37.425Z,5.80
2018-12-31T09:34:06.560Z,5.80
2018-12-31T09:36:36.560Z,5.90
2018-12-31T09:39:07.531Z,6.00
2018-12-31T09:41:35.852Z,6.00
2018-12-31T09:44:04.177Z,6.10
2018-12-31T09:46:32.514Z,6.20
2018-12-31T09:49:00.611Z,6.30
2018-12-31T09:51:28.833Z,6.30
2018-12-31T09:53:57.062Z,6.40
2018-12-31T09:56:25.383Z,6.50
2018-12-31T09:58:53.909Z,6.60
2018-12-31T10:01:22.731Z,6.60
2018-12-31T10:03:51.027Z,6.70
2018-12-31T10:06:19.093Z,6.70
2018-12-31T10:08:49.433Z,6.80
2018-12-31T10:11:17.294Z,6.90
2018-12-31T10:13:45.492Z,6.90
2018-12-31T10:16:13.717Z,7.00
2018-12-31T10:18:41.957Z,7.10
2018-12-31T10:21:10.026Z,7.30
2018-12-31T10:23:38.213Z,7.40
2018-12-31T10:26:06.409Z,7.60
2018-12-31T10:28:34.632Z,7.80
2018-12-31T10:31:02.705Z,8.00
2018-12-31T10:33:30.917Z,8.20
2018-12-31T10:35:58.980Z,8.30
2018-12-31T10:38:27.104Z,8.40
2018-12-31T10:40:55.277Z,8.60
2018-12-31T10:43:23.393Z,8.80
2018-12-31T10:45:51.827Z,8.80
2018-12-31T10:48:20.239Z,8.90
2018-12-31T10:50:48.357Z,9.00
2018-12-31T10:53:16.481Z,9.00
2018-12-31T10:55:44.708Z,9.10
2018-12-31T10:58:12.992Z,9.10
2018-12-31T11:00:42.845Z,9.20
2018-12-31T11:03:11.010Z,9.20
2018-12-31T11:05:39.180Z,9.30
2018-12-31T11:08:07.393Z,9.30
2018-12-31T11:10:36.173Z,9.40
2018-12-31T11:13:04.833Z,9.40
2018-12-31T11:15:33.148Z,9.50
2018-12-31T11:18:08.552Z,9.60
2018-12-31T11:20:39.298Z,9.60
2018-12-31T11:23:11.725Z,9.70
2018-12-31T11:25:41.219Z,9.70
2018-12-31T11:28:09.464Z,9.80
2018-12-31T11:30:38.028Z,9.80
2018-12-31T11:33:06.971Z,9.80
2018-12-31T11:35:37.469Z,9.80
2018-12-31T11:38:05.848Z,9.90
2018-12-31T11:40:34.111Z,9.90
2018-12-31T11:43:02.249Z,9.80
2018-12-31T11:45:32.537Z,9.90
2018-12-31T11:48:07.801Z,9.80
2018-12-31T11:50:38.525Z,9.80
2018-12-31T11:53:06.741Z,9.80
2018-12-31T11:55:34.932Z,9.80
2018-12-31T11:58:04.837Z,9.80
2018-12-31T12:00:35.332Z,9.80
2018-12-31T12:03:04.665Z,9.90
2018-12-31T12:05:34.275Z,9.90
2018-12-31T12:08:02.497Z,9.90
2018-12-31T12:10:30.653Z,10.00
2018-12-31T12:12:58.931Z,9.90
2018-12-31T12:15:27.221Z,10.00
2018-12-31T12:17:55.350Z,10.00
2018-12-31T12:20:23.590Z,10.00
2018-12-31T12:22:51.712Z,10.00
2018-12-31T12:25:27.399Z,10.10
2018-12-31T12:27:55.536Z,10.00
2018-12-31T12:30:25.838Z,10.10
2018-12-31T12:32:54.009Z,10.10
2018-12-31T12:35:22.081Z,10.20
2018-12-31T12:37:50.205Z,10.20
2018-12-31T12:40:18.293Z,10.20
2018-12-31T12:42:48.246Z,10.20
2018-12-31T12:45:16.405Z,10.10
2018-12-31T12:47:45.118Z,10.10
2018-12-31T12:50:16.229Z,10.10
2018-12-31T12:52:44.532Z,10.10
2018-12-31T12:55:13.336Z,10.20
2018-12-31T12:57:41.457Z,10.20
2018-12-31T13:00:12.478Z,10.30
2018-12-31T13:02:40.613Z,10.30
2018-12-31T13:05:08.699Z,10.30
2018-12-31T13:07:38.567Z,10.40
2018-12-31T13:10:06.976Z,10.40
2018-12-31T13:12:35.154Z,10.60
2018-12-31T13:15:03.490Z,10.60
2018-12-31T13:17:31.581Z,10.70
2018-12-31T13:20:00.284Z,10.80
2018-12-31T13:22:30.417Z,10.80
2018-12-31T13:24:59.097Z,10.80
2018-12-31T13:27:28.561Z,10.90
2018-12-31T13:29:56.694Z,11.00
2018-12-31T13:32:25.381Z,11.00
2018-12-31T13:34:59.720Z,11.00
2018-12-31T13:37:27.893Z,11.10
2018-12-31T13:40:01.550Z,11.10
2018-12-31T13:42:37.957Z,11.10
2018-12-31T13:45:06.319Z,11.20
2018-12-31T13:47:34.688Z,11.10
2018-12-31T13:50:04.058Z,11.20
2018-12-31T13:52:32.217Z,11.20
2018-12-31T13:55:00.765Z,11.20
2018-12-31T13:57:28.841Z,11.20
2018-12-31T13:59:57.001Z,11.20
2018-12-31T14:02:25.186Z,11.20
2018-12-31T14:04:53.335Z,11.30
2018-12-31T14:07:22.136Z,11.30
2018-12-31T14:09:50.277Z,11.40
2018-12-31T14:12:18.517Z,11.40
2018-12-31T14:14:46.713Z,11.50
2018-12-31T14:17:14.842Z,11.50
2018-12-31T14:19:42.955Z,11.60
2018-12-31T14:22:11.025Z,11.60
2018-12-31T14:24:39.144Z,11.60
2018-12-31T14:27:08.430Z,11.60
2018-12-31T14:29:42.080Z,11.60
2018-12-31T14:32:11.062Z,11.60
2018-12-31T14:34:39.291Z,11.60
2018-12-31T14:37:07.413Z,11.60
2018-12-31T14:39:35.757Z,11.60
2018-12-31T14:42:04.000Z,11.60
2018-12-31T14:44:32.249Z,11.70
2018-12-31T14:47:00.501Z,11.70
2018-12-31T14:49:30.472Z,11.70
2018-12-31T14:51:58.608Z,11.80
2018-12-31T14:54:26.935Z,11.90
2018-12-31T14:56:55.112Z,11.90
2018-12-31T14:59:23.541Z,11.90
2018-12-31T15:01:51.820Z,11.90
2018-12-31T15:04:20.128Z,11.90
2018-12-31T15:06:48.202Z,11.90
2018-12-31T15:09:16.462Z,11.80
2018-12-31T15:11:45.130Z,11.80
2018-12-31T15:14:13.269Z,11.80
2018-12-31T15:16:41.588Z,11.70
2018-12-31T15:19:09.765Z,11.70
2018-12-31T15:21:38.386Z,11.70
2018-12-31T15:24:07.108Z,11.60
2018-12-31T15:26:35.870Z,11.50
2018-12-31T15:29:04.178Z,11.50
2018-12-31T15:31:32.405Z,11.50
2018-12-31T15:34:00.674Z,11.40
2018-12-31T15:36:28.733Z,11.40
2018-12-31T15:38:58.469Z,11.40
2018-12-31T15:41:26.871Z,11.30
2018-12-31T15:43:55.811Z,11.40
2018-12-31T15:46:24.153Z,11.30
2018-12-31T15:48:52.299Z,11.30
2018-12-31T15:51:20.564Z,11.30
2018-12-31T15:53:49.131Z,11.20
2018-12-31T15:56:17.329Z,11.20
2018-12-31T15:58:45.484Z,11.10
2018-12-31T16:01:15.545Z,11.00
2018-12-31T16:03:44.123Z,10.90
2018-12-31T16:06:12.253Z,10.90
2018-12-31T16:08:40.369Z,10.80
2018-12-31T16:11:08.545Z,10.70
2018-12-31T16:13:36.716Z,10.70
2018-12-31T16:16:05.967Z,10.70
2018-12-31T16:18:34.070Z,10.60
2018-12-31T16:21:02.993Z,10.50
2018-12-31T16:23:31.242Z,10.30
2018-12-31T16:25:59.414Z,10.10
2018-12-31T16:28:27.582Z,10.00
2018-12-31T16:30:55.780Z,9.90
2018-12-31T16:33:23.866Z,9.80
2018-12-31T16:35:51.982Z,9.70
2018-12-31T16:38:20.118Z,9.70
2018-12-31T16:40:48.256Z,9.70
2018-12-31T16:43:17.020Z,9.70
2018-12-31T16:45:45.114Z,9.60
2018-12-31T16:48:13.725Z,9.60
2018-12-31T16:50:41.905Z,9.60
2018-12-31T16:53:10.032Z,9.40
2018-12-31T16:55:38.536Z,9.40
2018-12-31T16:58:06.681Z,9.40
2018-12-31T17:00:34.758Z,9.30
2018-12-31T17:03:02.916Z,9.20
2018-12-31T17:05:31.036Z,9.20
2018-12-31T17:07:59.656Z,9.20
2018-12-31T17:10:31.154Z,9.10
2018-12-31T17:13:02.319Z,9.00
2018-12-31T17:15:30.381Z,8.90
2018-12-31T17:17:58.642Z,8.90
2018-12-31T17:20:26.901Z,8.80
2018-12-31T17:22:55.061Z,8.70
2018-12-31T17:25:23.331Z,8.60
2018-12-31T17:27:51.539Z,8.60
2018-12-31T17:30:19.730Z,8.50
2018-12-31T17:32:48.021Z,8.40
2018-12-31T17:35:16.657Z,8.30
2018-12-31T17:37:44.837Z,8.20
2018-12-31T17:40:12.921Z,8.10
2018-12-31T17:42:42.672Z,8.10
2018-12-31T17:45:11.029Z,8.00
2018-12-31T17:47:39.154Z,8.10
2018-12-31T17:50:07.561Z,8.10
2018-12-31T17:52:35.749Z,8.00
2018-12-31T17:55:04.043Z,7.90
2018-12-31T17:57:32.616Z,7.90
2018-12-31T18:00:00.692Z,8.00
2018-12-31T18:02:28.828Z,7.90
2018-12-31T18:04:57.006Z,7.80
2018-12-31T18:07:25.129Z,7.70
2018-12-31T18:09:53.209Z,7.70
2018-12-31T18:12:25.850Z,7.70
2018-12-31T18:14:54.353Z,7.70
2018-12-31T18:17:22.497Z,7.60
2018-12-31T18:19:50.675Z,7.60
2018-12-31T18:22:18.820Z,7.60
2018-12-31T18:24:46.940Z,7.50
2018-12-31T18:27:15.467Z,7.50
2018-12-31T18:29:43.542Z,7.60
2018-12-31T18:32:11.674Z,7.80
2018-12-31T18:34:40.138Z,8.10
2018-12-31T18:37:08.369Z,8.30
2018-12-31T18:39:36.455Z,8.40
2018-12-31T18:42:04.594Z,8.60
2018-12-31T18:44:32.678Z,8.60
2018-12-31T18:47:00.929Z,8.70
2018-12-31T18:49:31.201Z,8.80
2018-12-31T18:52:04.281Z,8.80
2018-12-31T18:54:32.359Z,8.80
2018-12-31T18:57:00.865Z,8.80
2018-12-31T18:59:32.587Z,8.70
2018-12-31T19:02:00.810Z,8.70
2018-12-31T19:04:28.883Z,8.70
2018-12-31T19:07:01.353Z,8.60
2018-12-31T19:09:29.452Z,8.60
2018-12-31T19:11:57.602Z,8.60
2018-12-31T19:14:25.681Z,8.50
2018-12-31T19:16:54.267Z,8.40
2018-12-31T19:19:22.931Z,8.40
2018-12-31T19:21:51.068Z,8.30
2018-12-31T19:24:19.168Z,8.20
2018-12-31T19:26:47.330Z,8.10
2018-12-31T19:29:16.002Z,8.10
2018-12-31T19:31:44.490Z,8.10
2018-12-31T19:34:13.029Z,8.10
2018-12-31T19:36:41.125Z,8.10
2018-12-31T19:39:09.671Z,8.10
2018-12-31T19:41:37.765Z,8.10
2018-12-31T19:44:05.929Z,8.20
2018-12-31T19:46:34.001Z,8.10
2018-12-31T19:49:02.156Z,8.10
2018-12-31T19:51:30.298Z,8.00
2018-12-31T19:53:58.435Z,8.00
2018-12-31T19:56:26.533Z,8.00
2018-12-31T19:58:55.161Z,7.90
2018-12-31T20:01:23.263Z,7.90
2018-12-31T20:03:51.376Z,8.00
2018-12-31T20:06:19.880Z,8.10
2018-12-31T20:08:48.050Z,8.20
2018-12-31T20:11:16.221Z,8.30
2018-12-31T20:13:44.365Z,8.40
2018-12-31T20:16:12.525Z,8.50
2018-12-31T20:18:40.660Z,8.60
2018-12-31T20:21:08.737Z,8.70
2018-12-31T20:23:36.886Z,8.80
2018-12-31T20:26:06.076Z,8.80
2018-12-31T20:28:34.217Z,8.90
2018-12-31T20:31:02.471Z,8.90
2018-12-31T20:33:30.644Z,8.90
2018-12-31T20:35:58.829Z,8.90
2018-12-31T20:38:26.981Z,8.90
2018-12-31T20:40:55.360Z,9.00
2018-12-31T20:43:23.615Z,9.00
2018-12-31T20:45:51.705Z,9.10
2018-12-31T20:48:19.864Z,9.20
2018-12-31T20:50:48.388Z,9.20
2018-12-31T20:53:16.545Z,9.10
2018-12-31T20:55:45.029Z,9.10
2018-12-31T20:58:13.190Z,9.10
2018-12-31T21:00:41.277Z,9.00
2018-12-31T21:03:09.445Z,8.90
2018-12-31T21:05:37.513Z,8.90
2018-12-31T21:08:05.868Z,8.70
2018-12-31T21:10:34.895Z,8.60
2018-12-31T21:13:03.260Z,8.60
2018-12-31T21:15:31.347Z,8.50
2018-12-31T21:17:59.481Z,8.50
2018-12-31T21:20:27.560Z,8.40
2018-12-31T21:22:56.097Z,8.30
2018-12-31T21:25:24.645Z,8.20
2018-12-31T21:27:53.215Z,8.20
2018-12-31T21:30:21.316Z,8.30
2018-12-31T21:32:49.473Z,8.00
2018-12-31T21:35:17.693Z,8.00
2018-12-31T21:37:45.833Z,8.00
2018-12-31T21:40:13.923Z,7.80
2018-12-31T21:42:42.552Z,7.80
2018-12-31T21:45:10.704Z,7.50
2018-12-31T21:47:38.873Z,7.40
2018-12-31T21:50:07.218Z,7.20
2018-12-31T21:52:35.452Z,6.90
2018-12-31T21:55:03.985Z,6.80
2018-12-31T21:57:32.093Z,7.00
2018-12-31T22:00:00.328Z,7.30
2018-12-31T22:02:28.818Z,7.60
2018-12-31T22:04:57.336Z,7.80
2018-12-31T22:07:25.853Z,7.80
2018-12-31T22:09:53.974Z,8.00
2018-12-31T22:12:22.073Z,8.00
2018-12-31T22:15:11.504Z,7.90
2018-12-31T22:17:42.674Z,8.10
2018-12-31T22:20:11.021Z,8.10
2018-12-31T22:22:39.361Z,8.10
2018-12-31T22:25:07.879Z,8.10
2018-12-31T22:27:37.162Z,8.10
2018-12-31T22:30:07.399Z,8.20
2018-12-31T22:32:57.069Z,8.20
2018-12-31T22:35:25.166Z,8.10
2018-12-31T22:37:53.277Z,8.10
2018-12-31T22:40:21.413Z,8.10
2018-12-31T22:42:49.525Z,8.00
2018-12-31T22:45:17.685Z,8.00
2018-12-31T22:47:45.773Z,8.00
2018-12-31T22:50:14.405Z,7.90
2018-12-31T22:52:42.533Z,7.90
2018-12-31T22:55:10.815Z,7.80
2018-12-31T22:57:38.901Z,7.70
2018-12-31T23:00:08.917Z,7.70
2018-12-31T23:02:37.779Z,7.60
2018-12-31T23:05:07.801Z,7.60
2018-12-31T23:07:35.897Z,7.50
2018-12-31T23:10:04.503Z,7.40
2018-12-31T23:12:32.568Z,7.40
2018-12-31T23:15:01.325Z,7.20
2018-12-31T23:17:29.447Z,7.20
2018-12-31T23:19:57.643Z,7.00
2018-12-31T23:22:25.714Z,7.00
2018-12-31T23:24:53.841Z,7.00
2018-12-31T23:27:21.929Z,7.20
2018-12-31T23:29:50.263Z,7.40
2018-12-31T23:32:18.498Z,7.60
2018-12-31T23:34:46.648Z,7.80
2018-12-31T23:37:14.731Z,7.90
2018-12-31T23:39:42.872Z,8.00
2018-12-31T23:42:10.958Z,8.20
2018-12-31T23:44:39.204Z,8.20
2018-12-31T23:47:07.300Z,8.20
2018-12-31T23:49:35.818Z,8.30
2018-12-31T23:52:04.061Z,8.30
2018-12-31T23:54:32.196Z,8.30
2018-12-31T23:57:00.270Z,8.30
2018-12-31T23:59:28.394Z,8.30
